首页
METAR-TAF:

METAR-TAF

机场 :

瓦岱國際機場

永珍, 老挝

纬度: 17-57N, 经度: 102-34E, 海拔: 171米

当前天气观测

该预报发布于1小时和25分钟前的16:30 UTC
风速2节,风向西南
温度 27°C
湿度 89%
气压 1006 hPa
能見度: 3000
多云层高于5000英尺
轻雾

METAR: VLVT 231630Z 22002KT 3000 BR BKN050 27/25 Q1006 NOSIG

时间: 00:55 (17:55 UTC)

预报

该预报发布于55分钟前的17:00 UTC
预报有效从23日的 18点(UTC)到 24日的 18点(UTC)
风速2节,风向西转西南
能見度: 3000
多云层高于4000英尺
散云层高于8300英尺
轻雾
短暂存在
从 24日的 00点(UTC)到 24日的 05点(UTC)
能見度: 5000
散云层高于1300英尺
散云层高于4000英尺
多云层高于8300英尺
轻雾

TAF: VLVT 231700Z 2318/2418 24002KT 3000 BR BKN040 SCT083 TEMPO 2400/2405 5000 BR SCT013 SCT040 BKN083

超过4000个机场的气象观测和天气预报(METAR&TAF报告)。

可查询的气象台以黄色和红色小点在地图上表示。

将鼠标移到小点上方,可查看气象台名称。

然后点击查看天气观测和预报。

如需切换地图:点击带黑十字的绿色按钮放大地图;点击带横线的绿色按钮缩小地图;或者点击绿色箭头查看邻近地区的地图。


METAR-TAF: